createdAt,value
2022-09-12T00:00:57.310Z,94.06
2022-09-12T00:01:57.348Z,93.25
2022-09-12T00:02:57.382Z,93.25
2022-09-12T00:03:57.623Z,93.15
2022-09-12T00:04:57.149Z,93.25
2022-09-12T00:05:57.220Z,93.45
2022-09-12T00:06:57.109Z,93.55
2022-09-12T00:07:57.214Z,93.29
2022-09-12T00:08:57.211Z,93.19
2022-09-12T00:09:57.263Z,93.25
2022-09-12T00:10:57.131Z,93.09
2022-09-12T00:11:57.170Z,93.19
2022-09-12T00:12:57.242Z,93.15
2022-09-12T00:13:57.293Z,93.25
2022-09-12T00:14:57.244Z,93.45
2022-09-12T00:15:57.117Z,93.96
2022-09-12T00:16:57.111Z,94.10
2022-09-12T00:17:57.026Z,93.90
2022-09-12T00:18:57.174Z,93.60
2022-09-12T00:19:57.056Z,93.49
2022-09-12T00:20:56.944Z,93.40
2022-09-12T00:21:56.981Z,93.29
2022-09-12T00:22:57.143Z,93.29
2022-09-12T00:23:57.377Z,93.40
2022-09-12T00:24:57.103Z,93.49
2022-09-12T00:25:57.022Z,93.29
2022-09-12T00:26:57.214Z,93.09
2022-09-12T00:27:56.823Z,92.89
2022-09-12T00:28:57.247Z,93.09
2022-09-12T00:29:56.954Z,93.29
2022-09-12T00:30:56.919Z,93.40
2022-09-12T00:31:56.979Z,93.29
2022-09-12T00:32:56.879Z,93.09
2022-09-12T00:33:56.955Z,92.99
2022-09-12T00:34:56.772Z,92.99
2022-09-12T00:35:56.729Z,93.09
2022-09-12T00:36:56.730Z,93.29
2022-09-12T00:37:56.787Z,92.99
2022-09-12T00:38:56.852Z,93.19
2022-09-12T00:39:57.056Z,93.40
2022-09-12T00:40:56.931Z,92.99
2022-09-12T00:41:56.867Z,92.58
2022-09-12T00:42:56.934Z,92.89
2022-09-12T00:43:56.807Z,93.09
2022-09-12T00:44:57.592Z,92.89
2022-09-12T00:45:56.704Z,92.38
2022-09-12T00:46:56.684Z,92.68
2022-09-12T00:47:56.908Z,92.68
2022-09-12T00:48:56.775Z,92.58
2022-09-12T00:49:56.617Z,93.09
2022-09-12T00:50:56.659Z,93.29
2022-09-12T00:51:56.577Z,93.19
2022-09-12T00:52:56.906Z,93.09
2022-09-12T00:53:56.735Z,93.09
2022-09-12T00:54:57.084Z,93.09
2022-09-12T00:55:56.579Z,92.99
2022-09-12T00:56:56.494Z,93.24
2022-09-12T00:57:56.694Z,93.24
2022-09-12T00:58:56.540Z,92.63
2022-09-12T00:59:56.498Z,92.93
2022-09-12T01:00:56.962Z,92.72
2022-09-12T01:01:56.606Z,92.72
2022-09-12T01:02:56.482Z,92.32
2022-09-12T01:03:56.479Z,92.52
2022-09-12T01:04:56.767Z,92.83
2022-09-12T01:05:56.268Z,92.72
2022-09-12T01:06:56.439Z,92.93
2022-09-12T01:07:56.318Z,92.72
2022-09-12T01:08:56.451Z,92.83
2022-09-12T01:09:56.593Z,92.83
2022-09-12T01:10:56.481Z,92.83
2022-09-12T01:11:56.408Z,92.93
2022-09-12T01:12:56.429Z,92.52
2022-09-12T01:13:56.321Z,92.63
2022-09-12T01:14:56.252Z,92.93
2022-09-12T01:15:56.371Z,92.93
2022-09-12T01:16:56.179Z,92.72
2022-09-12T01:17:56.254Z,92.42
2022-09-12T01:18:56.260Z,92.72
2022-09-12T01:19:57.393Z,92.72
2022-09-12T01:20:56.464Z,92.63
2022-09-12T01:21:56.230Z,92.93
2022-09-12T01:22:56.234Z,93.18
2022-09-12T01:23:56.966Z,92.87
2022-09-12T01:24:56.365Z,92.67
2022-09-12T01:25:56.223Z,92.77
2022-09-12T01:26:56.371Z,92.67
2022-09-12T01:27:56.909Z,92.97
2022-09-12T01:28:56.074Z,93.07
2022-09-12T01:29:56.189Z,93.18
2022-09-12T01:31:07.155Z,93.18
2022-09-12T01:31:58.082Z,92.97
2022-09-12T01:32:56.002Z,93.18
2022-09-12T01:33:56.427Z,93.18
2022-09-12T01:34:56.323Z,93.28
2022-09-12T01:35:56.124Z,93.48
2022-09-12T01:36:56.063Z,93.38
2022-09-12T01:37:55.930Z,93.48
2022-09-12T01:38:55.865Z,93.38
2022-09-12T01:39:56.132Z,93.18
2022-09-12T01:40:56.200Z,92.97
2022-09-12T01:41:56.072Z,93.28
2022-09-12T01:42:55.842Z,93.28
2022-09-12T01:43:55.814Z,93.48
2022-09-12T01:44:55.916Z,93.48
2022-09-12T01:45:55.832Z,93.48
2022-09-12T01:46:55.947Z,93.28
2022-09-12T01:47:55.911Z,93.22
2022-09-12T01:48:55.711Z,93.02
2022-09-12T01:49:55.758Z,93.12
2022-09-12T01:50:55.733Z,92.67
2022-09-12T01:51:55.760Z,92.71
2022-09-12T01:52:55.692Z,93.12
2022-09-12T01:53:55.682Z,93.32
2022-09-12T01:54:55.781Z,93.43
2022-09-12T01:55:55.910Z,93.43
2022-09-12T01:56:55.670Z,93.63
2022-09-12T01:57:55.692Z,93.52
2022-09-12T01:58:55.603Z,93.43
2022-09-12T01:59:55.744Z,93.22
2022-09-12T02:00:55.687Z,93.52
2022-09-12T02:01:55.742Z,93.63
2022-09-12T02:02:55.561Z,93.52
2022-09-12T02:03:55.911Z,93.43
2022-09-12T02:04:56.127Z,93.43
2022-09-12T02:05:56.535Z,93.83
2022-09-12T02:06:57.570Z,94.04
2022-09-12T02:07:56.654Z,94.38
2022-09-12T02:08:56.436Z,94.38
2022-09-12T02:09:55.547Z,94.18
2022-09-12T02:10:57.452Z,94.28
2022-09-12T02:11:56.367Z,94.08
2022-09-12T02:12:55.384Z,93.77
2022-09-12T02:13:55.480Z,93.87
2022-09-12T02:14:56.975Z,93.98
2022-09-12T02:15:56.571Z,94.08
2022-09-12T02:16:56.227Z,94.18
2022-09-12T02:17:55.883Z,94.18
2022-09-12T02:18:55.480Z,94.38
2022-09-12T02:19:55.675Z,94.28
2022-09-12T02:20:55.354Z,94.38
2022-09-12T02:21:56.924Z,94.59
2022-09-12T02:22:57.242Z,94.38
2022-09-12T02:23:55.724Z,94.69
2022-09-12T02:24:55.761Z,94.69
2022-09-12T02:25:55.458Z,94.79
2022-09-12T02:26:55.869Z,94.69
2022-09-12T02:27:55.252Z,94.69
2022-09-12T02:28:55.307Z,94.69
2022-09-12T02:29:55.259Z,94.48
2022-09-12T02:30:55.585Z,94.38
2022-09-12T02:31:55.478Z,94.18
2022-09-12T02:32:55.295Z,94.38
2022-09-12T02:33:55.959Z,94.28
2022-09-12T02:34:56.003Z,94.38
2022-09-12T02:35:56.485Z,94.28
2022-09-12T02:36:55.104Z,94.12
2022-09-12T02:37:55.168Z,93.87
2022-09-12T02:38:55.128Z,94.08
2022-09-12T02:39:56.304Z,94.12
2022-09-12T02:40:55.881Z,94.23
2022-09-12T02:41:55.199Z,94.23
2022-09-12T02:42:55.037Z,93.82
2022-09-12T02:43:55.203Z,94.02
2022-09-12T02:44:55.066Z,94.23
2022-09-12T02:45:55.244Z,94.53
2022-09-12T02:46:55.199Z,94.43
2022-09-12T02:47:55.405Z,94.63
2022-09-12T02:48:56.601Z,95.04
2022-09-12T02:49:55.115Z,95.24
2022-09-12T02:50:57.193Z,95.04
2022-09-12T02:51:54.906Z,94.73
2022-09-12T02:52:54.989Z,94.43
2022-09-12T02:53:55.040Z,94.23
2022-09-12T02:54:56.178Z,94.02
2022-09-12T02:55:55.744Z,94.12
2022-09-12T02:56:56.248Z,94.23
2022-09-12T02:57:54.995Z,94.12
2022-09-12T02:58:54.872Z,94.23
2022-09-12T02:59:54.934Z,94.02
2022-09-12T03:00:56.165Z,94.43
2022-09-12T03:01:56.314Z,94.63
2022-09-12T03:02:54.895Z,94.43
2022-09-12T03:03:55.777Z,94.63
2022-09-12T03:04:56.160Z,94.73
2022-09-12T03:05:55.257Z,94.73
2022-09-12T03:06:55.343Z,94.43
2022-09-12T03:07:56.617Z,94.32
2022-09-12T03:08:55.059Z,94.53
2022-09-12T03:09:54.727Z,94.63
2022-09-12T03:10:54.947Z,94.43
2022-09-12T03:11:57.104Z,94.53
2022-09-12T03:12:55.552Z,94.73
2022-09-12T03:13:54.831Z,94.73
2022-09-12T03:14:54.926Z,94.88
2022-09-12T03:15:54.630Z,95.08
2022-09-12T03:16:54.882Z,94.88
2022-09-12T03:17:54.883Z,94.68
2022-09-12T03:18:54.585Z,94.57
2022-09-12T03:19:54.775Z,94.37
2022-09-12T03:20:54.752Z,94.27
2022-09-12T03:21:54.591Z,94.07
2022-09-12T03:22:54.713Z,94.17
2022-09-12T03:23:55.026Z,94.17
2022-09-12T03:24:54.738Z,94.47
2022-09-12T03:25:54.612Z,94.37
2022-09-12T03:26:54.692Z,94.17
2022-09-12T03:27:54.616Z,94.17
2022-09-12T03:28:54.788Z,94.17
2022-09-12T03:29:54.669Z,94.07
2022-09-12T03:30:54.645Z,94.07
2022-09-12T03:31:54.346Z,94.17
2022-09-12T03:32:54.547Z,94.17
2022-09-12T03:33:54.537Z,94.07
2022-09-12T03:34:54.437Z,94.27
2022-09-12T03:35:54.669Z,94.07
2022-09-12T03:36:54.410Z,93.96
2022-09-12T03:37:54.504Z,94.17
2022-09-12T03:38:54.799Z,94.07
2022-09-12T03:39:54.830Z,93.86
2022-09-12T03:40:55.099Z,93.86
2022-09-12T03:41:54.222Z,94.17
2022-09-12T03:42:54.415Z,94.07
2022-09-12T03:43:54.796Z,93.86
2022-09-12T03:44:54.272Z,93.86
2022-09-12T03:45:54.960Z,93.76
2022-09-12T03:46:54.696Z,93.80
2022-09-12T03:47:54.203Z,94.01
2022-09-12T03:48:54.323Z,94.01
2022-09-12T03:49:54.263Z,94.11
2022-09-12T03:50:54.469Z,94.11
2022-09-12T03:51:54.321Z,94.42
2022-09-12T03:52:54.250Z,94.01
2022-09-12T03:53:54.272Z,94.11
2022-09-12T03:54:54.244Z,94.11
2022-09-12T03:55:54.248Z,94.42
2022-09-12T03:56:54.127Z,94.42
2022-09-12T03:57:54.282Z,94.42
2022-09-12T03:58:54.431Z,94.52
2022-09-12T03:59:54.338Z,94.52
2022-09-12T04:00:54.047Z,94.62
2022-09-12T04:01:54.367Z,94.42
2022-09-12T04:02:54.056Z,94.52
2022-09-12T04:03:54.086Z,94.52
2022-09-12T04:04:54.065Z,94.52
2022-09-12T04:05:54.021Z,94.42
2022-09-12T04:06:53.928Z,94.62
2022-09-12T04:07:53.995Z,94.42
2022-09-12T04:08:54.121Z,94.42
2022-09-12T04:09:53.999Z,94.52
2022-09-12T04:10:54.146Z,94.31
2022-09-12T04:11:53.976Z,94.31
2022-09-12T04:12:54.006Z,94.52
2022-09-12T04:13:53.978Z,94.82
2022-09-12T04:14:54.111Z,95.37
2022-09-12T04:15:54.003Z,95.37
2022-09-12T04:16:54.095Z,95.48
2022-09-12T04:17:54.243Z,95.37
2022-09-12T04:18:53.974Z,95.17
2022-09-12T04:19:54.040Z,94.76
2022-09-12T04:20:54.088Z,94.87
2022-09-12T04:21:53.710Z,94.97
2022-09-12T04:22:53.940Z,94.66
2022-09-12T04:23:53.792Z,94.56
2022-09-12T04:24:54.205Z,94.56
2022-09-12T04:25:53.996Z,94.76
2022-09-12T04:26:53.676Z,94.87
2022-09-12T04:27:53.836Z,94.87
2022-09-12T04:28:53.821Z,94.97
2022-09-12T04:29:53.642Z,94.87
2022-09-12T04:30:53.734Z,94.87
2022-09-12T04:31:53.761Z,94.76
2022-09-12T04:32:53.586Z,94.56
2022-09-12T04:33:53.997Z,94.56
2022-09-12T04:34:53.816Z,94.56
2022-09-12T04:35:53.698Z,94.87
2022-09-12T04:36:53.793Z,94.76
2022-09-12T04:37:53.571Z,94.87
2022-09-12T04:38:53.797Z,95.17
2022-09-12T04:39:53.631Z,95.28
2022-09-12T04:40:53.770Z,95.28
2022-09-12T04:41:53.554Z,95.52
2022-09-12T04:42:53.544Z,95.73
2022-09-12T04:43:53.505Z,95.83
2022-09-12T04:44:53.460Z,95.73
2022-09-12T04:45:53.414Z,95.83
2022-09-12T04:46:53.566Z,95.83
2022-09-12T04:47:53.473Z,95.83
2022-09-12T04:48:56.829Z,95.93
2022-09-12T04:49:53.579Z,96.14
2022-09-12T04:50:53.431Z,96.23
2022-09-12T04:51:53.468Z,96.23
2022-09-12T04:52:53.317Z,96.14
2022-09-12T04:53:53.476Z,96.14
2022-09-12T04:54:53.347Z,96.23
2022-09-12T04:55:53.270Z,96.48
2022-09-12T04:56:53.329Z,96.59
2022-09-12T04:57:53.289Z,96.48
2022-09-12T04:58:53.363Z,96.44
2022-09-12T04:59:53.210Z,96.34
2022-09-12T05:00:53.192Z,96.34
2022-09-12T05:01:53.361Z,96.34
2022-09-12T05:02:53.172Z,96.34
2022-09-12T05:03:53.224Z,96.14
2022-09-12T05:04:53.123Z,95.93
2022-09-12T05:05:56.464Z,95.83
2022-09-12T05:06:53.264Z,95.62
2022-09-12T05:07:53.300Z,95.52
2022-09-12T05:08:53.163Z,95.42
2022-09-12T05:09:53.193Z,95.42
2022-09-12T05:10:53.108Z,95.52
2022-09-12T05:12:04.102Z,95.73
2022-09-12T05:12:54.135Z,95.83
2022-09-12T05:13:53.266Z,95.93
2022-09-12T05:14:53.087Z,95.83
2022-09-12T05:15:53.098Z,95.93
2022-09-12T05:16:53.201Z,95.83
2022-09-12T05:17:52.984Z,95.73
2022-09-12T05:18:53.544Z,95.73
2022-09-12T05:19:52.979Z,95.73
2022-09-12T05:20:53.316Z,95.83
2022-09-12T05:21:53.557Z,95.73
2022-09-12T05:22:52.879Z,95.52
2022-09-12T05:23:53.089Z,95.62
2022-09-12T05:24:53.141Z,95.42
2022-09-12T05:25:52.935Z,95.62
2022-09-12T05:26:53.146Z,95.52
2022-09-12T05:27:53.023Z,95.62
2022-09-12T05:28:52.948Z,95.52
2022-09-12T05:29:52.936Z,95.52
2022-09-12T05:30:53.137Z,95.73
2022-09-12T05:31:53.443Z,95.73
2022-09-12T05:32:53.188Z,95.67
2022-09-12T05:33:53.171Z,95.87
2022-09-12T05:34:52.867Z,96.08
2022-09-12T05:35:52.862Z,96.18
2022-09-12T05:36:53.165Z,96.38
2022-09-12T05:37:52.821Z,96.28
2022-09-12T05:38:52.733Z,96.18
2022-09-12T05:39:52.782Z,96.28
2022-09-12T05:40:52.794Z,96.38
2022-09-12T05:41:52.904Z,96.44
2022-09-12T05:42:52.991Z,96.44
2022-09-12T05:43:52.725Z,96.34
2022-09-12T05:44:52.829Z,96.34
2022-09-12T05:45:52.843Z,96.59
2022-09-12T05:46:52.837Z,96.64
2022-09-12T05:47:52.873Z,96.79
2022-09-12T05:48:56.082Z,96.84
2022-09-12T05:49:52.797Z,97.09
2022-09-12T05:50:52.587Z,97.20
2022-09-12T05:51:52.707Z,97.20
2022-09-12T05:52:52.496Z,97.16
2022-09-12T05:53:52.514Z,97.16
2022-09-12T05:54:52.627Z,97.25
2022-09-12T05:55:52.589Z,97.36
2022-09-12T05:56:52.556Z,97.36
2022-09-12T05:57:52.832Z,97.36
2022-09-12T05:58:52.784Z,97.25
2022-09-12T05:59:52.586Z,97.05
2022-09-12T06:00:52.541Z,97.05
2022-09-12T06:01:52.445Z,97.05
2022-09-12T06:02:52.496Z,97.16
2022-09-12T06:03:52.509Z,97.05
2022-09-12T06:04:52.734Z,97.05
2022-09-12T06:05:52.461Z,97.05
2022-09-12T06:06:52.599Z,96.95
2022-09-12T06:07:52.478Z,96.95
2022-09-12T06:08:52.560Z,96.95
2022-09-12T06:09:52.409Z,96.91
2022-09-12T06:10:52.410Z,96.80
2022-09-12T06:11:52.359Z,96.60
2022-09-12T06:12:52.293Z,96.70
2022-09-12T06:13:52.372Z,96.60
2022-09-12T06:14:52.608Z,96.39
2022-09-12T06:15:52.526Z,96.39
2022-09-12T06:16:52.345Z,96.30
2022-09-12T06:17:52.234Z,96.15
2022-09-12T06:18:52.602Z,96.04
2022-09-12T06:19:52.407Z,96.04
2022-09-12T06:20:52.272Z,96.15
2022-09-12T06:21:52.135Z,96.04
2022-09-12T06:22:52.183Z,95.84
2022-09-12T06:23:52.146Z,95.94
2022-09-12T06:24:57.312Z,95.94
2022-09-12T06:25:53.133Z,95.84
2022-09-12T06:26:52.667Z,96.15
2022-09-12T06:27:52.219Z,95.94
2022-09-12T06:28:52.183Z,95.94
2022-09-12T06:29:52.096Z,95.90
2022-09-12T06:30:52.209Z,95.69
2022-09-12T06:31:52.137Z,95.69
2022-09-12T06:32:52.054Z,95.49
2022-09-12T06:33:52.098Z,95.39
2022-09-12T06:34:52.123Z,95.29
2022-09-12T06:35:52.113Z,95.29
2022-09-12T06:36:52.030Z,95.29
2022-09-12T06:37:52.126Z,95.29
2022-09-12T06:38:52.271Z,95.18
2022-09-12T06:39:52.157Z,95.24
2022-09-12T06:40:52.086Z,95.14
2022-09-12T06:41:52.056Z,95.14
2022-09-12T06:42:51.988Z,94.73
2022-09-12T06:43:52.171Z,94.43
2022-09-12T06:44:52.154Z,94.32
2022-09-12T06:45:51.959Z,94.53
2022-09-12T06:46:52.184Z,94.63
2022-09-12T06:47:52.153Z,94.63
2022-09-12T06:48:52.265Z,94.53
2022-09-12T06:49:51.902Z,94.38
2022-09-12T06:50:51.954Z,94.38
2022-09-12T06:51:51.905Z,94.48
2022-09-12T06:52:51.950Z,94.18
2022-09-12T06:53:52.082Z,93.98
2022-09-12T06:54:51.785Z,93.98
2022-09-12T06:55:51.821Z,93.83
2022-09-12T06:56:51.877Z,93.43
2022-09-12T06:57:51.845Z,93.32
2022-09-12T06:58:51.872Z,93.43
2022-09-12T06:59:53.785Z,93.63
2022-09-12T07:00:54.012Z,93.43
2022-09-12T07:01:53.137Z,93.22
2022-09-12T07:02:52.113Z,92.77
2022-09-12T07:03:51.701Z,92.36
2022-09-12T07:04:51.633Z,92.16
2022-09-12T07:05:52.148Z,92.06
2022-09-12T07:06:52.010Z,92.06
2022-09-12T07:07:52.353Z,91.86
2022-09-12T07:08:51.705Z,91.86
2022-09-12T07:09:51.935Z,91.91
2022-09-12T07:10:51.897Z,92.02
2022-09-12T07:11:51.550Z,91.91
2022-09-12T07:12:51.694Z,92.22
2022-09-12T07:13:51.730Z,92.42
2022-09-12T07:14:51.556Z,92.12
2022-09-12T07:15:51.590Z,91.91
2022-09-12T07:16:51.599Z,91.91
2022-09-12T07:17:51.500Z,91.87
2022-09-12T07:18:51.515Z,91.56
2022-09-12T07:19:51.493Z,91.36
2022-09-12T07:20:51.610Z,91.16
2022-09-12T07:21:54.238Z,91.26
2022-09-12T07:22:52.410Z,91.26
2022-09-12T07:23:51.519Z,91.06
2022-09-12T07:24:51.431Z,91.06
2022-09-12T07:25:51.502Z,91.06
2022-09-12T07:26:51.579Z,90.86
2022-09-12T07:27:51.573Z,90.96
2022-09-12T07:28:51.404Z,90.86
2022-09-12T07:29:54.662Z,90.75
2022-09-12T07:30:52.443Z,91.02
2022-09-12T07:31:51.650Z,91.32
2022-09-12T07:32:51.684Z,91.12
2022-09-12T07:33:54.621Z,90.71
2022-09-12T07:34:52.504Z,90.71
2022-09-12T07:35:51.398Z,90.71
2022-09-12T07:36:51.478Z,90.51
2022-09-12T07:37:51.346Z,90.31
2022-09-12T07:38:54.511Z,90.20
2022-09-12T07:39:52.510Z,90.31
2022-09-12T07:40:51.497Z,90.61
2022-09-12T07:41:51.540Z,90.88
2022-09-12T07:42:51.458Z,90.36
2022-09-12T07:43:51.187Z,89.96
2022-09-12T07:44:51.688Z,90.06
2022-09-12T07:45:51.266Z,90.06
2022-09-12T07:46:51.310Z,89.96
2022-09-12T07:47:51.499Z,89.86
2022-09-12T07:48:51.395Z,89.45
2022-09-12T07:49:51.250Z,89.31
2022-09-12T07:50:51.096Z,89.11
2022-09-12T07:51:51.116Z,89.11
2022-09-12T07:52:51.228Z,89.41
2022-09-12T07:53:51.090Z,88.60
2022-09-12T07:54:51.164Z,88.49
2022-09-12T07:55:51.444Z,89.01
2022-09-12T07:56:51.059Z,89.01
2022-09-12T07:57:51.574Z,89.01
2022-09-12T07:58:51.218Z,89.01
2022-09-12T07:59:53.342Z,89.01
2022-09-12T08:00:51.495Z,88.49
2022-09-12T08:01:51.049Z,88.66
2022-09-12T08:02:51.297Z,88.86
2022-09-12T08:03:51.476Z,88.56
2022-09-12T08:04:51.085Z,88.66
2022-09-12T08:05:51.063Z,88.35
2022-09-12T08:06:51.005Z,88.76
2022-09-12T08:07:54.624Z,89.06
2022-09-12T08:08:52.826Z,88.86
2022-09-12T08:09:53.902Z,88.76
2022-09-12T08:10:51.155Z,88.56
2022-09-12T08:11:51.092Z,88.62
2022-09-12T08:12:52.153Z,88.82
2022-09-12T08:13:56.393Z,88.31
2022-09-12T08:14:55.493Z,88.21
2022-09-12T08:15:54.536Z,88.62
2022-09-12T08:16:51.765Z,88.62
2022-09-12T08:17:51.683Z,88.82
2022-09-12T08:18:51.119Z,89.02
2022-09-12T08:19:52.917Z,88.68
2022-09-12T08:20:54.990Z,88.57
2022-09-12T08:23:08.990Z,88.48
2022-09-12T08:26:26.444Z,88.57
2022-09-12T08:27:15.826Z,88.37
2022-09-12T08:28:28.632Z,88.27
2022-09-12T08:29:41.392Z,88.17
2022-09-12T08:30:15.251Z,87.93
2022-09-12T08:32:39.866Z,87.82
2022-09-12T08:35:01.569Z,87.82
2022-09-12T08:37:39.519Z,87.62
2022-09-12T08:38:35.840Z,87.32
2022-09-12T08:39:35.724Z,86.98
2022-09-12T08:40:35.671Z,86.67
2022-09-12T08:41:35.949Z,86.16
2022-09-12T08:42:36.938Z,86.57
2022-09-12T08:43:36.108Z,86.47
2022-09-12T08:44:41.870Z,86.57
2022-09-12T08:45:40.214Z,86.67
2022-09-12T08:46:37.861Z,86.57
2022-09-12T08:47:36.956Z,86.98
2022-09-12T08:48:36.633Z,86.47
2022-09-12T08:49:35.582Z,86.83
2022-09-12T08:50:37.949Z,86.43
2022-09-12T08:51:38.767Z,85.82
2022-09-12T08:52:39.968Z,85.82
2022-09-12T08:53:38.377Z,86.13
2022-09-12T08:54:35.673Z,85.38
2022-09-12T08:55:38.430Z,85.28
2022-09-12T08:56:38.345Z,85.28
2022-09-12T08:57:39.704Z,85.48
2022-09-12T08:58:36.645Z,84.67
2022-09-12T08:59:37.507Z,84.77
2022-09-12T09:00:43.037Z,85.17
2022-09-12T09:01:36.467Z,84.97
2022-09-12T09:02:35.760Z,84.73
2022-09-12T09:03:36.334Z,84.53
2022-09-12T09:04:34.978Z,84.53
2022-09-12T09:05:35.193Z,84.83
2022-09-12T09:06:36.273Z,84.53
2022-09-12T09:07:37.169Z,84.03
2022-09-12T09:08:35.600Z,84.33
2022-09-12T09:09:36.077Z,84.93
2022-09-12T09:10:35.246Z,84.93
2022-09-12T09:11:35.089Z,84.69
2022-09-12T09:12:37.129Z,84.69
2022-09-12T09:14:53.333Z,84.15
2022-09-12T09:15:55.274Z,84.25
2022-09-12T09:16:53.338Z,83.84
2022-09-12T09:17:52.823Z,84.05
2022-09-12T09:18:53.131Z,83.84
2022-09-12T09:19:53.175Z,83.70
2022-09-12T09:20:53.270Z,83.60
2022-09-12T09:21:53.112Z,83.50
2022-09-12T09:22:53.538Z,82.39
2022-09-12T09:23:53.155Z,82.05
2022-09-12T09:24:53.266Z,81.95
2022-09-12T09:25:52.999Z,81.65
2022-09-12T09:26:55.574Z,81.55
2022-09-12T09:28:04.495Z,81.85
2022-09-12T09:28:53.738Z,82.35
2022-09-12T09:31:27.064Z,81.95
2022-09-12T09:33:42.133Z,82.25
2022-09-12T09:34:42.147Z,82.35
2022-09-12T09:38:12.978Z,81.24
2022-09-12T09:39:01.917Z,81.24
2022-09-12T09:40:01.241Z,81.35
2022-09-12T09:41:00.920Z,81.21
2022-09-12T09:42:01.188Z,81.01
2022-09-12T09:43:00.921Z,81.01
2022-09-12T09:44:01.385Z,81.10
2022-09-12T09:45:01.073Z,79.86
2022-09-12T09:46:01.298Z,80.16
2022-09-12T09:47:01.139Z,80.57
2022-09-12T09:48:01.038Z,80.46
2022-09-12T09:49:02.178Z,80.63
2022-09-12T09:50:01.662Z,80.52
2022-09-12T09:51:00.935Z,80.43
2022-09-12T09:52:01.842Z,80.49
2022-09-12T09:53:00.986Z,79.58
2022-09-12T09:54:01.319Z,79.44
2022-09-12T09:55:00.765Z,79.10
2022-09-12T09:56:00.775Z,79.21
2022-09-12T09:57:01.136Z,78.30
2022-09-12T09:58:01.098Z,78.36
2022-09-12T09:59:00.971Z,77.56
2022-09-12T10:00:00.944Z,76.86
2022-09-12T10:01:00.818Z,77.36
2022-09-12T10:02:00.956Z,77.86
2022-09-12T10:03:01.356Z,77.76
2022-09-12T10:04:00.765Z,77.66
2022-09-12T10:05:01.497Z,77.92
2022-09-12T10:06:02.167Z,75.25
2022-09-12T10:07:01.388Z,75.21
2022-09-12T10:08:00.766Z,75.71
2022-09-12T10:09:00.974Z,75.75
2022-09-12T10:10:02.005Z,76.42
2022-09-12T10:11:01.243Z,75.85
2022-09-12T10:12:00.428Z,75.55
2022-09-12T10:13:00.948Z,76.45
2022-09-12T10:14:00.976Z,76.56
2022-09-12T10:15:01.508Z,76.65
2022-09-12T10:16:00.969Z,76.45
2022-09-12T10:17:00.510Z,75.15
2022-09-12T10:18:01.708Z,75.35
2022-09-12T10:19:00.688Z,74.91
2022-09-12T10:20:17.870Z,73.91
2022-09-12T10:21:01.320Z,74.71
2022-09-12T10:22:00.972Z,74.51
2022-09-12T10:23:00.426Z,74.91
2022-09-12T10:24:00.423Z,73.21
2022-09-12T10:25:00.523Z,73.57
2022-09-12T10:26:00.674Z,74.37
2022-09-12T10:27:00.567Z,73.47
2022-09-12T10:28:00.432Z,72.97
2022-09-12T10:29:00.501Z,74.04
2022-09-12T10:30:00.398Z,74.34
2022-09-12T10:31:00.346Z,72.94
2022-09-12T10:32:00.385Z,71.73
2022-09-12T10:33:00.510Z,71.20
2022-09-12T10:34:00.289Z,71.70
2022-09-12T10:35:00.794Z,71.70
2022-09-12T10:36:01.421Z,72.30
2022-09-12T10:37:00.423Z,72.86
2022-09-12T10:38:00.220Z,71.86
2022-09-12T10:39:00.640Z,71.16
2022-09-12T10:40:00.460Z,70.06
2022-09-12T10:41:01.551Z,69.46
2022-09-12T10:42:00.743Z,69.76
2022-09-12T10:43:00.123Z,68.96
2022-09-12T10:44:00.662Z,69.76
2022-09-12T10:45:00.218Z,70.26
2022-09-12T10:46:00.282Z,70.66
2022-09-12T10:47:00.253Z,71.36
2022-09-12T10:48:06.776Z,70.76
2022-09-12T10:49:01.622Z,69.16
2022-09-12T10:50:00.204Z,69.96
2022-09-12T10:51:00.288Z,71.06
2022-09-12T10:52:00.150Z,71.56
2022-09-12T10:53:00.361Z,71.23
2022-09-12T10:54:03.252Z,69.73
2022-09-12T10:55:00.050Z,69.62
2022-09-12T10:56:00.306Z,68.52
2022-09-12T10:57:00.246Z,68.92
2022-09-12T10:58:01.503Z,69.42
2022-09-12T10:59:01.797Z,68.82
2022-09-12T11:00:00.492Z,69.59
2022-09-12T11:01:00.562Z,69.23
2022-09-12T11:01:59.919Z,69.12
2022-09-12T11:03:00.408Z,70.23
2022-09-12T11:04:00.635Z,70.12
2022-09-12T11:05:00.010Z,69.73
2022-09-12T11:05:59.923Z,70.03
2022-09-12T11:07:01.719Z,69.32
2022-09-12T11:08:00.532Z,69.62
2022-09-12T11:09:05.800Z,68.92
2022-09-12T11:10:01.163Z,69.09
2022-09-12T11:11:01.571Z,66.49
2022-09-12T11:11:59.820Z,66.78
2022-09-12T11:13:00.756Z,66.99
2022-09-12T11:14:00.460Z,67.96
2022-09-12T11:14:59.810Z,67.66
2022-09-12T11:16:00.463Z,68.16
2022-09-12T11:17:00.063Z,68.05
2022-09-12T11:17:59.715Z,67.55
2022-09-12T11:18:59.692Z,67.46
2022-09-12T11:19:59.751Z,68.16
2022-09-12T11:20:59.962Z,67.46
2022-09-12T11:21:59.594Z,65.66
2022-09-12T11:22:59.569Z,66.36
2022-09-12T11:23:59.609Z,67.16
2022-09-12T11:24:59.689Z,65.75
2022-09-12T11:25:59.615Z,66.66
2022-09-12T11:26:59.593Z,67.46
2022-09-12T11:28:01.150Z,66.46
2022-09-12T11:28:59.916Z,66.19
2022-09-12T11:29:59.759Z,67.79
2022-09-12T11:30:59.786Z,66.96
2022-09-12T11:31:59.619Z,68.05
2022-09-12T11:33:00.899Z,68.16
2022-09-12T11:33:59.545Z,68.76
2022-09-12T11:35:01.039Z,68.66
2022-09-12T11:35:59.579Z,67.25
2022-09-12T11:36:59.542Z,64.83
2022-09-12T11:37:59.528Z,65.72
2022-09-12T11:39:01.182Z,67.02
2022-09-12T11:40:01.517Z,66.52
2022-09-12T11:40:59.409Z,64.22
2022-09-12T11:41:59.484Z,65.42
2022-09-12T11:42:59.788Z,66.32
2022-09-12T11:43:59.863Z,64.12
2022-09-12T11:44:59.722Z,64.52
2022-09-12T11:45:59.441Z,64.22
2022-09-12T11:46:59.472Z,64.62
2022-09-12T11:47:59.756Z,65.33
2022-09-12T11:48:59.264Z,65.52
2022-09-12T11:50:00.644Z,65.62
2022-09-12T11:50:59.522Z,64.99
2022-09-12T11:51:59.163Z,65.29
2022-09-12T11:52:59.413Z,65.39
2022-09-12T11:53:59.477Z,64.99
2022-09-12T11:54:59.200Z,63.39
2022-09-12T11:55:59.314Z,63.19
2022-09-12T11:56:59.286Z,63.49
2022-09-12T11:58:00.294Z,64.29
2022-09-12T11:58:59.183Z,64.39
2022-09-12T12:00:03.217Z,63.86
2022-09-12T12:01:00.941Z,64.26
2022-09-12T12:02:01.150Z,63.86
2022-09-12T12:02:59.475Z,62.86
2022-09-12T12:03:59.269Z,62.86
2022-09-12T12:04:59.678Z,62.86
2022-09-12T12:05:59.160Z,62.26
2022-09-12T12:07:14.577Z,62.56
2022-09-12T12:08:00.253Z,63.13
2022-09-12T12:08:59.389Z,62.93
2022-09-12T12:09:59.757Z,61.43
2022-09-12T12:10:59.072Z,61.73
2022-09-12T12:11:59.056Z,59.44
2022-09-12T12:12:59.201Z,59.23
2022-09-12T12:13:58.927Z,58.84
2022-09-12T12:14:59.841Z,59.53
2022-09-12T12:15:58.987Z,60.63
2022-09-12T12:16:59.261Z,61.83
2022-09-12T12:18:00.141Z,62.04
2022-09-12T12:18:59.230Z,61.43
2022-09-12T12:20:04.286Z,62.53
2022-09-12T12:20:59.961Z,62.53
2022-09-12T12:21:59.186Z,62.04
2022-09-12T12:22:59.135Z,61.96
2022-09-12T12:23:59.392Z,63.06
2022-09-12T12:24:59.343Z,63.06
2022-09-12T12:26:13.430Z,64.66
2022-09-12T12:27:00.593Z,64.86
2022-09-12T12:27:58.965Z,65.56
2022-09-12T12:28:59.173Z,65.76
2022-09-12T12:30:06.658Z,64.76
2022-09-12T12:31:26.895Z,64.66
2022-09-12T12:31:59.243Z,64.66
2022-09-12T12:32:59.969Z,63.73
2022-09-12T12:33:59.989Z,63.83
2022-09-12T12:35:00.913Z,63.03
2022-09-12T12:35:58.669Z,62.43
2022-09-12T12:36:59.273Z,62.40
2022-09-12T12:37:59.707Z,62.23
2022-09-12T12:38:58.756Z,62.63
2022-09-12T12:39:59.149Z,63.03
2022-09-12T12:40:58.907Z,64.00
2022-09-12T12:42:00.292Z,61.30
2022-09-12T12:42:58.650Z,62.10
2022-09-12T12:43:58.850Z,61.41
2022-09-12T12:44:58.580Z,60.00
2022-09-12T12:45:58.835Z,59.91
2022-09-12T12:46:58.518Z,60.61
2022-09-12T12:47:58.473Z,59.91
2022-09-12T12:48:58.509Z,60.50
2022-09-12T12:49:58.887Z,60.11
2022-09-12T12:50:59.474Z,59.51
2022-09-12T12:51:59.209Z,60.21
2022-09-12T12:52:58.700Z,59.31
2022-09-12T12:53:58.375Z,58.41
2022-09-12T12:54:58.409Z,57.91
2022-09-12T12:55:58.413Z,58.41
2022-09-12T12:56:58.833Z,58.18
2022-09-12T12:57:59.344Z,57.98
2022-09-12T12:58:59.778Z,58.28
2022-09-12T12:59:58.494Z,57.61
2022-09-12T13:00:59.193Z,58.31
2022-09-12T13:01:58.468Z,58.73
2022-09-12T13:03:00.010Z,58.73
2022-09-12T13:03:58.326Z,59.34
2022-09-12T13:04:58.803Z,60.24
2022-09-12T13:05:58.539Z,59.23
2022-09-12T13:06:58.438Z,59.14